Latest Coastal Weather Observations for Albion Park

IDN60701

Issued at 11:01 pm EDT Tuesday 21 February 2017 (issued every 10 minutes, with the page automatically refreshed every 10 minutes)

About coastal observations | Map of coastal stations | Coastal observations for NSW | Marine services | Other Formats
Station Details ID: 068241 Name: WOLLONGONG AIRPORT Lat: -34.56 Lon: 150.79 Height: 8.0 m
Data from the previous 72 hours. | See also: Recent months at Albion Park
Date/Time
EDT
Temp
°C
Wind Pressure Rain since
9am
mm
Weather Cloud Vis
km
Sea
Height
m
Swell
Dir  Spd
kts
Gust
kts
hPa Trend Height
m
Period
s
Dir
21/10:30pm 21.6 W 6 7 1021.2 - 0.0 - Cloudy 10 - - - -
21/10:00pm 23.5 NE 7 9 1021.3 - 0.0 - Cloudy 10 - - - -
21/09:30pm 23.6 NE 8 11 1021.1 - 0.0 - Partly cloudy 10 - - - -
21/09:00pm 23.5 NE 9 13 1020.7 - 0.0 - Cloudy 10 - - - -
21/08:30pm 23.6 NE 9 13 1020.6 - 0.0 - Partly cloudy 10 - - - -
21/08:00pm 23.3 ENE 6 8 1020.3 - 0.0 - Partly cloudy 10 - - - -
21/07:30pm 23.3 E 7 9 1020.0 - 0.0 - Partly cloudy 10 - - - -
21/07:00pm 23.9 ENE 9 11 1019.6 - 0.0 - Cloudy 10 - - - -
21/06:30pm 24.0 E 8 11 1019.4 - 0.0 - Partly cloudy 10 - - - -
21/06:00pm 23.9 ENE 9 13 1019.3 - 0.0 - Mostly clear 10 - - - -
21/05:30pm 25.0 ENE 9 11 1019.0 - 0.0 - - 10 - - - -
21/05:00pm 25.1 ENE 10 13 1018.9 - 0.0 - - 10 - - - -
21/04:30pm 25.3 NE 9 12 1018.8 - 0.0 - - 10 - - - -
21/04:00pm 25.3 NE 9 13 1018.8 - 0.0 - Partly cloudy 10 - - - -
21/03:30pm 25.6 NE 9 14 1018.8 - 0.0 - - 10 - - - -
21/03:00pm 24.9 NE 10 14 1018.9 - 0.0 - - 10 - - - -
21/02:30pm 25.4 E 9 16 1019.1 - 0.0 - Partly cloudy 10 - - - -
21/02:00pm 24.7 E 9 13 1019.5 - 0.0 - Partly cloudy 10 - - - -
21/01:30pm 25.1 E 9 13 1019.5 - 0.0 - Partly cloudy 10 - - - -
21/01:00pm 26.2 ENE 9 16 1019.4 - 0.0 - - 10 - - - -
21/12:30pm 26.3 NE 8 13 1019.7 - 0.0 - Partly cloudy 10 - - - -
21/12:00pm 25.9 NE 7 9 1019.9 - 0.0 - Mostly clear 10 - - - -
21/11:30am 25.6 NE 7 10 1020.2 - 0.0 - Partly cloudy 10 - - - -
21/11:00am 25.1 ESE 4 7 1020.5 - 0.0 - Partly cloudy 10 - - - -
21/10:30am 24.6 NW 3 6 1020.6 - 0.0 - Partly cloudy 10 - - - -
21/10:00am 23.8 WSW 4 7 1020.4 - 0.0 - - 10 - - - -
21/09:30am 22.9 WSW 5 7 1020.2 - 0.0 - - 10 - - - -
21/09:00am 21.8 W 5 7 1019.8 - 0.0 - Mostly clear 10 - - - -
21/08:30am 20.5 WSW 5 6 1019.3 - 0.0 - - 10 - - - -
21/08:00am 18.6 WSW 6 8 1018.9 - 0.0 - - 10 - - - -
21/07:30am 13.6 W 3 4 1018.5 - 0.0 - Partly cloudy 10 - - - -
21/07:00am 11.4 W 2 3 1018.2 - 0.0 - Partly cloudy 10 - - - -
21/06:30am 11.1 CALM 0 0 1017.8 - 0.0 - - 10 - - - -
21/06:00am 11.2 W 2 4 1017.4 - 0.0 - - 10 - - - -
21/05:30am 11.4 W 1 3 1017.2 - 0.0 - - 10 - - - -
21/05:00am 11.2 W 2 4 1017.2 - 0.0 - - 10 - - - -
21/04:30am 11.9 W 1 5 1017.1 - 0.0 - - 10 - - - -
21/04:00am 12.1 W 5 7 1016.9 - 0.0 - - 10 - - - -
21/03:30am 12.3 W 4 6 1017.0 - 0.0 - - 10 - - - -
21/03:00am 12.8 W 2 7 1017.0 - 0.0 - - 10 - - - -
21/02:30am 11.8 SW 3 4 1017.2 - 0.0 - - 10 - - - -
21/02:00am 12.5 SW 1 4 1017.1 - 0.0 - - 10 - - - -
21/01:30am 13.2 SSW 5 7 1017.2 - 0.0 - - 10 - - - -
21/01:00am 13.5 SE 2 5 1017.2 - 0.0 - - 10 - - - -
21/12:30am 15.4 WNW 5 7 1017.0 - 0.0 - - 10 - - - -
21/12:00am 17.2 NW 5 9 1016.6 - 0.0 - - 10 - - - -
 
Date/Time
EDT
Temp
°C
Wind Pressure Rain since
9am
mm
Weather Cloud Vis
km
Sea
Height
m
Swell
Dir  Spd
kts
Gust
kts
hPa Trend Height
m
Period
s
Dir
20/11:30pm 15.6 WSW 2 5 1016.3 - 0.0 - - 10 - - - -
20/11:00pm 17.5 W 7 10 1015.8 - 0.0 - - 10 - - - -
20/10:30pm 17.2 W 7 10 1015.7 - 0.0 - - 10 - - - -
20/10:00pm 15.1 NW 3 5 1015.5 - 0.0 - - 10 - - - -
20/09:30pm 16.3 W 3 4 1015.1 - 0.0 - - 10 - - - -
20/09:00pm 17.6 W 3 5 1014.4 - 0.0 - - 10 - - - -
20/08:30pm 17.8 W 5 7 1013.6 - 0.0 - - 10 - - - -
20/08:00pm 19.1 WNW 7 8 1012.9 - 0.0 - - 10 - - - -
20/07:30pm 21.9 W 9 11 1012.2 - 0.0 - - 10 - - - -
20/07:00pm 24.6 W 12 16 1011.6 - 0.0 - - 10 - - - -
20/06:30pm 25.5 W 12 17 1011.0 - 0.0 - - 10 - - - -
20/06:00pm 26.0 WSW 12 21 1010.6 - 0.0 - - 10 - - - -
20/05:30pm 26.2 WSW 14 19 1010.3 - 0.0 - - 10 - - - -
20/05:00pm 26.4 WSW 15 20 1009.9 - 0.0 - - 10 - - - -
20/04:30pm 26.6 WNW 15 25 1009.9 - 0.0 - - 10 - - - -
20/04:27pm 26.9 WNW 15 25 1009.7 - 0.0 - - 10 - - - -
20/04:00pm 26.5 W 14 21 1009.7 - 0.0 - - 10 - - - -
20/03:30pm 26.4 WNW 14 19 1009.7 - 0.0 - - 10 - - - -
20/03:00pm 25.9 W 15 27 1009.7 - 0.0 - - 10 - - - -
20/02:59pm 25.8 W 15 27 1009.7 - 0.0 - - 10 - - - -
20/02:30pm 25.4 WSW 18 25 1009.7 - 0.0 - - 10 - - - -
20/02:00pm 24.9 W 20 26 1009.6 - 0.0 - - 10 - - - -
20/01:30pm 25.0 W 18 23 1009.7 - 0.0 - - 10 - - - -
20/01:00pm 24.3 W 15 22 1009.9 - 0.0 - - 10 - - - -
20/12:30pm 23.6 W 19 25 1009.9 - 0.0 - - 10 - - - -
20/12:00pm 23.2 W 17 25 1009.9 - 0.0 - - 10 - - - -
20/11:30am 22.3 W 20 26 1010.1 - 0.0 - - 10 - - - -
20/11:00am 21.3 W 21 28 1010.3 - 0.0 - - 10 - - - -
20/10:30am 20.8 W 18 24 1010.3 - 0.0 - - 10 - - - -
20/10:00am 19.6 W 22 30 1010.3 - 0.0 - - 10 - - - -
20/09:30am 19.2 W 19 25 1010.5 - 0.0 - - 10 - - - -
20/09:20am 18.7 WSW 17 27 1010.5 - 0.0 - - 10 - - - -
20/09:00am 18.1 W 18 24 1010.5 - 0.0 - - 10 - - - -
20/08:30am 17.6 W 18 28 1010.4 - 0.0 - - 10 - - - -
20/08:29am 17.5 W 17 28 1010.4 - 0.0 - - 10 - - - -
20/08:00am 16.6 W 17 23 1010.3 - 0.0 - - 10 - - - -
20/07:30am 15.9 W 15 21 1010.2 - 0.0 - - 10 - - - -
20/07:25am 15.8 W 13 19 1010.2 - 0.0 - - 10 - - - -
20/07:00am 14.0 W 5 7 1010.1 - 0.0 - - 10 - - - -
20/06:30am 14.6 W 6 7 1009.9 - 0.0 - - 10 - - - -
20/06:00am 15.4 WSW 10 17 1009.5 - 0.0 - - 10 - - - -
20/05:30am 16.8 W 15 23 1008.5 - 0.0 - - 10 - - - -
20/05:00am 17.0 W 12 18 1008.4 - 0.0 - - 10 - - - -
20/04:30am 17.7 W 14 29 1008.1 - 0.0 - - 10 - - - -
20/04:00am 17.8 W 15 20 1007.6 - 0.0 - - 10 - - - -
20/03:30am 18.2 W 9 17 1007.2 - 0.0 - - 10 - - - -
20/03:00am 19.1 W 8 14 1007.1 - 0.0 - - 10 - - - -
20/02:30am 18.9 W 7 11 1006.8 - 0.0 - - 10 - - - -
20/02:00am 18.8 W 10 16 1006.5 - 0.0 - - 10 - - - -
20/01:30am 18.7 W 11 15 1006.3 - 0.0 - - 10 - - - -
20/01:00am 19.2 WSW 13 17 1006.4 - 0.0 - - 10 - - - -
20/12:30am 19.0 WSW 7 12 1006.7 - 0.0 - - 10 - - - -
20/12:00am 18.7 WSW 4 8 1007.0 - 0.0 - - 10 - - - -
 
Date/Time
EDT
Temp
°C
Wind Pressure Rain since
9am
mm
Weather Cloud Vis
km
Sea
Height
m
Swell
Dir  Spd
kts
Gust
kts
hPa Trend Height
m
Period
s
Dir
19/11:30pm 17.5 CALM 0 3 1006.7 - 0.0 - - 10 - - - -
19/11:00pm 17.9 WSW 5 7 1007.1 - 0.0 - - 10 - - - -
19/10:30pm 18.6 WSW 6 8 1007.0 - 0.0 - - 10 - - - -
19/10:00pm 19.0 WSW 6 7 1006.5 - 0.0 - - 10 - - - -
19/09:30pm 19.9 WSW 7 11 1006.6 - 0.0 - Partly cloudy 10 - - - -
19/09:00pm 20.0 WSW 7 9 1006.9 - 0.0 - Cloudy 10 - - - -
19/08:30pm 20.9 W 4 7 1006.6 - 0.0 - Partly cloudy 10 - - - -
19/08:00pm 21.8 ENE 5 7 1006.7 - 0.0 - Partly cloudy 10 - - - -
19/07:30pm 22.4 ENE 5 7 1006.3 - 0.0 - Partly cloudy 10 - - - -
19/07:00pm 23.2 ENE 7 9 1006.1 - 0.0 - Partly cloudy 10 - - - -
19/06:30pm 23.1 NE 6 9 1005.5 - 0.0 - - 10 - - - -
19/06:00pm 23.5 E 7 11 1005.4 - 0.0 - - 10 - - - -
19/05:30pm 23.6 ENE 8 11 1005.2 - 0.0 - - 10 - - - -
19/05:00pm 23.7 NE 9 11 1005.4 - 0.0 - - 10 - - - -
19/04:30pm 23.7 NE 9 11 1005.5 - 0.0 - - 10 - - - -
19/04:00pm 23.8 NE 9 12 1005.6 - 0.0 - - 10 - - - -
19/03:30pm 24.1 E 7 11 1006.1 - 0.0 - - 10 - - - -
19/03:00pm 23.3 ENE 9 11 1006.3 - 0.0 - - 10 - - - -
19/02:30pm 23.5 ENE 9 13 1006.6 - 0.0 - Partly cloudy 10 - - - -
19/02:00pm 24.2 E 8 14 1006.8 - 0.0 - - 10 - - - -
19/01:30pm 23.1 ESE 8 13 1007.1 - 0.0 - - 10 - - - -
19/01:00pm 22.6 ESE 10 15 1007.5 - 0.0 - Partly cloudy 10 - - - -
19/12:30pm 23.7 ENE 8 11 1007.9 - 0.0 - Partly cloudy 10 - - - -
19/12:00pm 23.0 ESE 4 6 1008.2 - 0.0 - Mostly cloudy 10 - - - -
19/11:30am 22.4 SE 4 6 1008.7 - 0.0 - Partly cloudy 10 - - - -
19/11:00am 21.5 W 5 8 1009.1 - 0.0 - Cloudy 10 - - - -
19/10:30am 20.9 W 7 10 1009.1 - 0.0 - Cloudy 10 - - - -
19/10:00am 20.6 NW 6 8 1009.3 - 0.0 - Cloudy 10 - - - -
19/09:30am 20.0 WNW 4 7 1009.2 - 0.0 - Cloudy 10 - - - -
19/09:00am 19.9 W 7 11 1009.3 - 27.0 - Mostly clear 10 - - - -
19/08:30am 19.1 WSW 6 9 1009.4 - 27.0 - Cloudy 10 - - - -
19/08:00am 18.4 SW 10 15 1009.5 - 27.0 - Cloudy 10 - - - -
19/07:30am 18.4 WSW 8 15 1009.2 - 27.0 - Cloudy 10 - - - -
19/07:00am 17.8 WSW 7 10 1009.2 - 27.0 - Partly cloudy 10 - - - -
19/06:30am 17.8 WSW 9 13 1008.9 - 27.0 - Cloudy 10 - - - -
19/06:00am 17.9 SW 6 9 1008.6 - 27.0 - Mostly cloudy 10 - - - -
19/05:30am 17.5 SW 7 11 1008.1 - 27.0 - Partly cloudy 10 - - - -
19/05:00am 17.7 WSW 8 12 1007.9 - 27.0 - Partly cloudy 10 - - - -
19/04:30am 17.7 SW 8 12 1008.0 - 27.0 - Partly cloudy 10 - - - -
19/04:12am 17.7 SW 7 12 1007.8 - 27.0 - Partly cloudy 10 - - - -
19/04:00am 17.9 WSW 9 13 1007.8 - 27.0 - Partly cloudy 10 - - - -
19/03:30am 18.1 SW 6 11 1007.7 - 27.0 - Cloudy 10 - - - -
19/03:12am 18.3 SW 6 11 1007.6 - 27.0 - Partly cloudy 10 - - - -
19/03:00am 18.2 SW 9 14 1007.5 - 27.0 - Cloudy 10 - - - -
19/02:50am 18.4 SSW 11 18 1007.3 - 27.0 - Partly cloudy 10 - - - -
19/02:30am 18.9 SSW 9 15 1007.5 - 27.0 - Partly cloudy 10 - - - -
19/02:22am 19.2 S 9 16 1007.6 - 27.0 - Partly cloudy 10 - - - -
19/02:00am 19.4 SSW 9 14 1006.9 - 27.0 - Partly cloudy 10 - - - -
19/01:30am 19.9 SSW 12 18 1007.0 - 27.0 - Partly cloudy 10 - - - -
19/01:00am 20.3 SSW 11 16 1007.2 - 27.0 - Partly cloudy 10 - - - -
19/12:30am 20.2 SSW 9 17 1007.4 - 27.0 - Partly cloudy 10 - - - -
19/12:00am 20.5 S 9 12 1007.2 - 27.0 - Cloudy 10 - - - -
 
Date/Time
EDT
Temp
°C
Wind Pressure Rain since
9am
mm
Weather Cloud Vis
km
Sea
Height
m
Swell
Dir  Spd
kts
Gust
kts
hPa Trend Height
m
Period
s
Dir
18/11:42pm 20.3 S 3 5 1007.3 - 27.0 - Partly cloudy 10 - - - -
18/11:30pm 20.4 SSE 4 8 1007.4 - 27.0 - Partly cloudy 10 - - - -
18/11:22pm 20.4 SE 6 8 1007.5 - 27.0 - Partly cloudy 10 - - - -

Other Formats:

Comma delimited format used in spreadsheet applications
http://www.bom.gov.au/fwo/IDN60701/IDN60701.95748.axf

JavaScript Object Notation format (JSON) in row-major order
http://www.bom.gov.au/fwo/IDN60701/IDN60701.95748.json